Time;durP1;ratioP1;P1;durP2;ratioP2;P2;SDS_P1;SDS_P2;PMS_P1;PMS_P2;Temp;Humidity;BMP_temperature;BMP_pressure;BME280_temperature;BME280_humidity;BME280_pressure;Samples;Min_cycle;Max_cycle;Signal;HPM_P1;HPM_P2
2023/08/18 00:00:35;;;;;;;;;;;;;;;25.35;44.50;99631.13;3143493;28;20561;-70
2023/08/18 00:02:06;;;;;;;;;;;;;;;25.34;44.81;99634.78;3146321;28;19934;-70
2023/08/18 00:03:39;;;;;;;;;;;;;;;25.33;44.52;99637.63;3143766;28;20402;-70
2023/08/18 00:05:09;;;;;;;;;;;;;;;25.32;44.49;99635.94;3145945;28;19925;-71
2023/08/18 00:06:41;;;;;;;;;;;;;;;25.29;44.59;99634.47;3140317;28;19925;-71
2023/08/18 00:08:11;;;;;;;;;;;;;;;25.27;44.60;99636.47;3132839;28;19921;-71
2023/08/18 00:09:43;;;;;;;;;;;;;;;25.25;44.54;99634.97;3143634;28;19920;-71
2023/08/18 00:11:15;;;;;;;;;;;;;;;25.24;44.43;99633.31;3145092;28;19930;-72
2023/08/18 00:12:46;;;;;;;;;;;;;;;25.24;44.70;99634.13;3146327;28;19990;-72
2023/08/18 00:14:17;;;;;;;;;;;;;;;25.26;44.34;99628.63;3143385;28;20290;-72
2023/08/18 00:15:49;;;;;;;;;;;;;;;25.27;44.69;99631.13;3135786;28;19927;-72
2023/08/18 00:17:19;;;;;;;;;;;;;;;25.28;44.33;99627.47;3137191;28;19931;-72
2023/08/18 00:18:52;;;;;;;;;;;;;;;25.30;44.20;99628.13;3138827;28;20334;-70
2023/08/18 00:20:24;;;;;;;;;;;;;;;25.31;44.50;99632.44;3146302;28;20345;-72
2023/08/18 00:21:54;;;;;;;;;;;;;;;25.33;44.18;99632.28;3142428;28;19924;-70
2023/08/18 00:23:26;;;;;;;;;;;;;;;25.33;44.32;99629.63;3136322;28;19988;-71
2023/08/18 00:24:57;;;;;;;;;;;;;;;25.36;44.39;99631.94;3145983;28;19920;-71
2023/08/18 00:26:28;;;;;;;;;;;;;;;25.37;43.97;99638.94;3145937;28;19927;-71
2023/08/18 00:28:00;;;;;;;;;;;;;;;25.38;44.19;99632.63;3146135;28;19924;-71
2023/08/18 00:29:30;;;;;;;;;;;;;;;25.38;43.92;99630.78;3146163;28;19944;-72
2023/08/18 00:31:02;;;;;;;;;;;;;;;25.39;44.02;99626.28;3145463;28;19928;-72
2023/08/18 00:32:33;;;;;;;;;;;;;;;25.38;43.91;99629.97;3143495;28;20368;-72
2023/08/18 00:34:06;;;;;;;;;;;;;;;25.38;44.13;99630.78;3143800;28;19982;-76
2023/08/18 00:35:37;;;;;;;;;;;;;;;25.39;44.14;99631.63;3145880;28;20455;-74
2023/08/18 00:37:09;;;;;;;;;;;;;;;25.38;43.83;99622.78;3140240;28;20030;-75
2023/08/18 00:38:39;;;;;;;;;;;;;;;25.39;44.15;99626.28;3141412;28;19924;-75
2023/08/18 00:40:11;;;;;;;;;;;;;;;25.39;44.12;99618.28;3145999;28;20017;-78
2023/08/18 00:41:42;;;;;;;;;;;;;;;25.38;44.02;99622.78;3142953;28;19931;-77
2023/08/18 00:43:13;;;;;;;;;;;;;;;25.38;43.93;99624.63;3146119;28;19920;-76
2023/08/18 00:44:44;;;;;;;;;;;;;;;25.37;44.07;99620.28;3145925;28;19921;-83
2023/08/18 00:46:16;;;;;;;;;;;;;;;25.36;43.84;99627.44;3145846;28;20069;-78
2023/08/18 00:47:47;;;;;;;;;;;;;;;25.36;43.73;99624.78;3140182;28;20068;-71
2023/08/18 00:49:21;;;;;;;;;;;;;;;25.36;43.75;99629.28;3145632;28;19927;-72
2023/08/18 00:50:52;;;;;;;;;;;;;;;25.35;43.87;99631.13;3145553;28;19931;-74
2023/08/18 00:52:24;;;;;;;;;;;;;;;25.34;43.77;99625.94;3135719;28;19921;-76
2023/08/18 00:53:55;;;;;;;;;;;;;;;25.31;43.81;99627.13;3145504;28;19924;-74
2023/08/18 00:55:28;;;;;;;;;;;;;;;25.31;43.96;99624.44;3145827;28;20003;-75
2023/08/18 00:56:59;;;;;;;;;;;;;;;25.30;43.75;99628.13;3145616;28;19955;-70
2023/08/18 00:58:30;;;;;;;;;;;;;;;25.29;44.01;99628.28;3145629;28;20298;-71
2023/08/18 01:00:02;;;;;;;;;;;;;;;25.29;44.16;99626.47;3145793;28;20039;-71
2023/08/18 01:01:33;;;;;;;;;;;;;;;25.29;43.83;99637.13;3142449;28;19927;-72
2023/08/18 01:03:06;;;;;;;;;;;;;;;25.28;43.81;99634.63;3140848;28;19924;-72
2023/08/18 01:04:39;;;;;;;;;;;;;;;25.27;43.99;99630.31;3141549;28;20313;-72
2023/08/18 01:06:09;;;;;;;;;;;;;;;25.25;44.07;99637.63;3145904;28;19924;-71
2023/08/18 01:07:41;;;;;;;;;;;;;;;25.25;43.81;99632.28;3143391;28;20077;-72
2023/08/18 01:09:11;;;;;;;;;;;;;;;25.24;44.08;99641.31;3145512;28;19928;-71
2023/08/18 01:10:46;;;;;;;;;;;;;;;25.23;44.12;99631.63;3143453;28;20062;-70
2023/08/18 01:12:24;;;;;;;;;;;;;;;25.23;43.93;99639.63;3136502;28;20293;-73
2023/08/18 01:13:57;;;;;;;;;;;;;;;25.20;44.17;99627.47;3141454;28;19924;-73
2023/08/18 01:15:32;;;;;;;;;;;;;;;25.19;44.23;99629.28;3145416;28;19936;-71
2023/08/18 01:17:06;;;;;;;;;;;;;;;25.19;44.25;99629.28;3140976;28;19928;-72
2023/08/18 01:18:38;;;;;;;;;;;;;;;25.18;44.28;99635.63;3145743;28;19920;-72
2023/08/18 01:20:11;;;;;;;;;;;;;;;25.17;44.33;99636.66;3145471;28;19924;-69
2023/08/18 01:21:43;;;;;;;;;;;;;;;25.17;44.04;99635.78;3145748;28;20016;-72
2023/08/18 01:23:17;;;;;;;;;;;;;;;25.15;44.17;99635.97;3132966;28;20395;-71
2023/08/18 01:24:48;;;;;;;;;;;;;;;25.16;44.17;99642.13;3142397;28;19920;-72
2023/08/18 01:26:20;;;;;;;;;;;;;;;25.14;43.99;99638.78;3153040;28;19924;-70
2023/08/18 01:27:51;;;;;;;;;;;;;;;25.12;44.25;99638.94;3156807;28;20282;-67
2023/08/18 01:29:22;;;;;;;;;;;;;;;25.10;44.43;99640.94;3157900;28;20060;-68
2023/08/18 01:30:54;;;;;;;;;;;;;;;25.05;44.25;99643.25;3157751;28;19927;-71
2023/08/18 01:32:28;;;;;;;;;;;;;;;25.00;44.54;99637.59;3154080;28;19920;-71
2023/08/18 01:34:01;;;;;;;;;;;;;;;24.98;44.41;99642.25;3157703;28;20443;-68
2023/08/18 01:35:32;;;;;;;;;;;;;;;24.96;44.71;99646.91;3159824;28;19985;-68
2023/08/18 01:37:04;;;;;;;;;;;;;;;24.96;44.81;99644.25;3157791;28;19920;-70
2023/08/18 01:38:36;;;;;;;;;;;;;;;24.97;44.45;99645.94;3153865;28;19984;-70
2023/08/18 01:40:11;;;;;;;;;;;;;;;24.96;44.81;99642.44;3160745;28;19926;-70
2023/08/18 01:41:41;;;;;;;;;;;;;;;24.97;44.46;99637.94;3156274;28;19927;-70
2023/08/18 01:43:13;;;;;;;;;;;;;;;24.96;44.58;99636.25;3160689;28;19926;-70
2023/08/18 01:44:44;;;;;;;;;;;;;;;24.94;44.56;99636.44;3160641;28;19927;-70
2023/08/18 01:46:15;;;;;;;;;;;;;;;24.94;44.60;99638.28;3156192;28;20328;-70
2023/08/18 01:47:46;;;;;;;;;;;;;;;24.94;44.62;99638.28;3160524;28;20325;-70
2023/08/18 01:49:17;;;;;;;;;;;;;;;24.93;44.91;99637.41;3160557;28;19926;-72
2023/08/18 01:50:48;;;;;;;;;;;;;;;24.92;44.62;99634.94;3160304;28;19920;-72
2023/08/18 01:52:19;;;;;;;;;;;;;;;24.90;44.68;99637.75;3155782;28;19939;-72
2023/08/18 01:53:51;;;;;;;;;;;;;;;24.91;45.02;99642.09;3160518;28;19927;-73
2023/08/18 01:55:23;;;;;;;;;;;;;;;24.91;45.10;99638.59;3160407;28;20022;-72
2023/08/18 01:56:54;;;;;;;;;;;;;;;24.88;44.98;99639.78;3160337;28;19930;-72
2023/08/18 01:58:25;;;;;;;;;;;;;;;24.85;45.20;99639.28;3160065;28;19939;-72
2023/08/18 01:59:56;;;;;;;;;;;;;;;24.82;45.00;99634.28;3160046;28;20404;-72
2023/08/18 02:01:28;;;;;;;;;;;;;;;24.78;45.29;99635.59;3155981;28;20389;-71
2023/08/18 02:02:59;;;;;;;;;;;;;;;24.74;45.05;99630.59;3160365;28;19924;-71
2023/08/18 02:04:31;;;;;;;;;;;;;;;24.73;45.18;99630.78;3160453;28;20025;-73
2023/08/18 02:06:01;;;;;;;;;;;;;;;24.71;45.51;99633.56;3160439;28;19939;-73
2023/08/18 02:07:33;;;;;;;;;;;;;;;24.70;45.20;99631.09;3154663;28;20327;-72
2023/08/18 02:09:05;;;;;;;;;;;;;;;24.68;45.64;99635.75;3151977;28;19927;-72
2023/08/18 02:10:37;;;;;;;;;;;;;;;24.65;45.61;99628.91;3160371;28;19927;-72
2023/08/18 02:12:08;;;;;;;;;;;;;;;24.63;45.44;99630.91;3160104;28;19924;-69
2023/08/18 02:13:39;;;;;;;;;;;;;;;24.63;45.33;99620.25;3157059;28;20439;-71
2023/08/18 02:15:11;;;;;;;;;;;;;;;24.64;45.32;99621.06;3160032;28;20065;-71
2023/08/18 02:16:41;;;;;;;;;;;;;;;24.62;45.41;99612.44;3160029;28;19985;-72
2023/08/18 02:18:13;;;;;;;;;;;;;;;24.61;45.41;99624.94;3160392;28;19968;-72
2023/08/18 02:19:43;;;;;;;;;;;;;;;24.60;45.83;99620.56;3160238;28;19920;-72
2023/08/18 02:21:15;;;;;;;;;;;;;;;24.60;45.44;99623.25;3160038;28;20070;-72
2023/08/18 02:22:46;;;;;;;;;;;;;;;24.58;45.64;99619.06;3151211;28;19995;-72
2023/08/18 02:24:19;;;;;;;;;;;;;;;24.56;45.96;99621.09;3157635;28;19947;-70
2023/08/18 02:25:49;;;;;;;;;;;;;;;24.56;45.73;99621.09;3160084;28;19931;-71
2023/08/18 02:27:21;;;;;;;;;;;;;;;24.52;46.06;99618.75;3160277;28;19942;-71
2023/08/18 02:28:53;;;;;;;;;;;;;;;24.52;46.04;99616.09;3159984;28;19924;-72
2023/08/18 02:30:23;;;;;;;;;;;;;;;24.51;45.79;99619.72;3155946;28;19920;-72
2023/08/18 02:31:55;;;;;;;;;;;;;;;24.50;46.22;99619.91;3159613;28;19976;-72
2023/08/18 02:33:25;;;;;;;;;;;;;;;24.48;46.04;99616.56;3159951;28;19920;-71
2023/08/18 02:34:57;;;;;;;;;;;;;;;24.46;46.34;99614.09;3159809;28;19924;-71
2023/08/18 02:36:27;;;;;;;;;;;;;;;24.46;46.19;99613.22;3156434;28;19921;-73
2023/08/18 02:37:59;;;;;;;;;;;;;;;24.45;46.18;99622.22;3147355;28;19920;-73
2023/08/18 02:39:31;;;;;;;;;;;;;;;24.46;46.02;99623.88;3149154;28;19928;-72
2023/08/18 02:41:03;;;;;;;;;;;;;;;24.44;46.67;99633.88;3156726;28;19924;-71
2023/08/18 02:42:33;;;;;;;;;;;;;;;24.36;46.45;99623.16;3159964;28;19930;-71
2023/08/18 02:44:05;;;;;;;;;;;;;;;24.30;46.48;99628.13;3155959;28;19925;-72
2023/08/18 02:45:35;;;;;;;;;;;;;;;24.26;46.82;99624.13;3157860;28;20389;-71
2023/08/18 02:47:09;;;;;;;;;;;;;;;24.25;46.74;99627.81;3158806;28;19920;-71
2023/08/18 02:48:40;;;;;;;;;;;;;;;24.24;46.73;99627.94;3159680;28;20435;-71
2023/08/18 02:50:11;;;;;;;;;;;;;;;24.21;46.89;99622.94;3159774;28;20128;-71
2023/08/18 02:51:42;;;;;;;;;;;;;;;24.17;47.09;99627.78;3159637;28;20352;-72
2023/08/18 02:53:13;;;;;;;;;;;;;;;24.15;47.13;99635.06;3153815;28;19920;-72
2023/08/18 02:54:45;;;;;;;;;;;;;;;24.13;46.90;99626.41;3159860;28;19959;-72
2023/08/18 02:56:17;;;;;;;;;;;;;;;24.12;47.27;99632.72;3155750;28;20390;-72
2023/08/18 02:57:47;;;;;;;;;;;;;;;24.11;47.05;99636.41;3150999;28;19978;-71
2023/08/18 02:59:19;;;;;;;;;;;;;;;24.09;47.07;99630.41;3154970;28;19919;-72
2023/08/18 03:00:50;;;;;;;;;;;;;;;24.08;47.02;99620.75;3155491;28;19925;-72
2023/08/18 03:02:21;;;;;;;;;;;;;;;24.06;47.15;99628.06;3159434;28;20008;-72
2023/08/18 03:03:52;;;;;;;;;;;;;;;24.05;47.39;99631.72;3155028;28;19925;-72
2023/08/18 03:05:23;;;;;;;;;;;;;;;24.06;47.14;99636.03;3159658;28;19920;-72
2023/08/18 03:06:55;;;;;;;;;;;;;;;24.05;47.03;99632.53;3158148;28;19927;-72
2023/08/18 03:08:26;;;;;;;;;;;;;;;24.06;47.47;99628.88;3158017;28;19994;-72
2023/08/18 03:10:00;;;;;;;;;;;;;;;24.08;47.17;99642.03;3159703;28;19920;-72
2023/08/18 03:11:30;;;;;;;;;;;;;;;24.08;47.12;99642.03;3157286;28;19920;-72
2023/08/18 03:13:03;;;;;;;;;;;;;;;24.09;47.35;99634.88;3159502;28;20036;-72
2023/08/18 03:14:34;;;;;;;;;;;;;;;24.08;47.36;99631.41;3151475;28;20713;-72
2023/08/18 03:16:05;;;;;;;;;;;;;;;24.05;47.60;99631.72;3159279;28;19924;-72
2023/08/18 03:17:36;;;;;;;;;;;;;;;24.03;47.33;99631.03;3154730;28;20308;-72
2023/08/18 03:19:07;;;;;;;;;;;;;;;24.01;47.43;99639.16;3152151;28;20014;-72
2023/08/18 03:20:38;;;;;;;;;;;;;;;23.99;47.62;99637.69;3159686;28;19927;-72
2023/08/18 03:22:10;;;;;;;;;;;;;;;23.97;47.70;99631.69;3155820;28;19924;-72
2023/08/18 03:23:40;;;;;;;;;;;;;;;23.96;47.48;99635.31;3150426;28;19919;-72
2023/08/18 03:25:13;;;;;;;;;;;;;;;23.94;47.57;99634.66;3159153;28;19924;-72
2023/08/18 03:26:44;;;;;;;;;;;;;;;23.93;47.97;99638.28;3159262;28;19920;-72
2023/08/18 03:28:15;;;;;;;;;;;;;;;23.91;47.86;99634.97;3154835;28;19925;-72
2023/08/18 03:29:46;;;;;;;;;;;;;;;23.88;47.86;99638.78;3159113;28;19920;-72
2023/08/18 03:31:18;;;;;;;;;;;;;;;23.85;48.00;99647.06;3146757;28;19999;-72
2023/08/18 03:32:50;;;;;;;;;;;;;;;23.83;48.24;99638.41;3158509;28;19920;-73
2023/08/18 03:34:21;;;;;;;;;;;;;;;23.82;48.08;99644.75;3159177;28;19924;-73
2023/08/18 03:35:52;;;;;;;;;;;;;;;23.81;48.10;99640.38;3149011;28;19931;-72
2023/08/18 03:37:23;;;;;;;;;;;;;;;23.82;47.99;99639.41;3150387;28;19920;-74
2023/08/18 03:38:54;;;;;;;;;;;;;;;23.79;48.06;99632.59;3155029;28;20434;-73
2023/08/18 03:40:27;;;;;;;;;;;;;;;23.77;48.06;99639.88;3151903;28;19924;-74
2023/08/18 03:41:57;;;;;;;;;;;;;;;23.74;48.16;99636.72;3149449;28;19997;-73
2023/08/18 03:43:30;;;;;;;;;;;;;;;23.70;48.38;99644.19;3154888;28;19920;-73
2023/08/18 03:45:00;;;;;;;;;;;;;;;23.65;48.37;99637.63;3159062;28;20448;-73
2023/08/18 03:46:33;;;;;;;;;;;;;;;23.64;48.41;99642.13;3159200;28;19920;-73
2023/08/18 03:48:04;;;;;;;;;;;;;;;23.65;48.50;99638.44;3159109;28;19981;-73
2023/08/18 03:49:35;;;;;;;;;;;;;;;23.64;48.45;99644.78;3158987;28;20092;-73
2023/08/18 03:51:06;;;;;;;;;;;;;;;23.65;48.47;99643.78;3158947;28;19920;-72
2023/08/18 03:52:37;;;;;;;;;;;;;;;23.66;48.43;99649.91;3151792;28;19924;-72
2023/08/18 03:54:08;;;;;;;;;;;;;;;23.64;48.45;99644.78;3147626;28;19921;-73
2023/08/18 03:55:41;;;;;;;;;;;;;;;23.63;48.51;99645.75;3158696;28;19931;-73
2023/08/18 03:57:11;;;;;;;;;;;;;;;23.62;48.52;99649.41;3155595;28;19920;-73
2023/08/18 03:58:43;;;;;;;;;;;;;;;23.60;48.47;99651.38;3157696;28;20375;-73
2023/08/18 04:00:14;;;;;;;;;;;;;;;23.59;48.69;99652.38;3153240;28;19924;-74
2023/08/18 04:01:45;;;;;;;;;;;;;;;23.56;48.70;99650.84;3157120;28;20074;-73
2023/08/18 04:03:16;;;;;;;;;;;;;;;23.56;48.53;99650.03;3158817;28;20462;-73
2023/08/18 04:04:48;;;;;;;;;;;;;;;23.55;48.88;99649.19;3149884;28;20015;-72
2023/08/18 04:06:19;;;;;;;;;;;;;;;23.52;48.85;99646.03;3153979;28;19969;-72
2023/08/18 04:07:50;;;;;;;;;;;;;;;23.49;48.86;99656.97;3156818;28;19920;-72
2023/08/18 04:09:22;;;;;;;;;;;;;;;23.45;48.87;99653.78;3159239;28;20316;-73
2023/08/18 04:10:54;;;;;;;;;;;;;;;23.44;49.13;99656.59;3157164;28;19930;-73
2023/08/18 04:12:25;;;;;;;;;;;;;;;23.42;49.42;99647.94;3154147;28;20018;-74
2023/08/18 04:13:56;;;;;;;;;;;;;;;23.37;49.27;99654.56;3155169;28;19920;-74
2023/08/18 04:15:27;;;;;;;;;;;;;;;23.37;49.59;99651.91;3154459;28;19926;-74
2023/08/18 04:16:59;;;;;;;;;;;;;;;23.37;49.41;99651.91;3158756;28;20412;-74
2023/08/18 04:18:30;;;;;;;;;;;;;;;23.40;49.53;99645.44;3158781;28;19960;-74
2023/08/18 04:20:04;;;;;;;;;;;;;;;23.44;49.22;99654.78;3158704;28;19927;-74
2023/08/18 04:21:35;;;;;;;;;;;;;;;23.43;49.47;99645.13;3158878;28;19924;-74
2023/08/18 04:23:06;;;;;;;;;;;;;;;23.44;49.45;99651.28;3147444;28;20002;-73
2023/08/18 04:24:37;;;;;;;;;;;;;;;23.44;49.51;99651.28;3146093;28;19974;-73
2023/08/18 04:26:12;;;;;;;;;;;;;;;23.43;49.47;99658.44;3155826;28;20316;-74
2023/08/18 04:27:42;;;;;;;;;;;;;;;23.42;49.54;99651.41;3157151;28;20002;-72
2023/08/18 04:29:14;;;;;;;;;;;;;;;23.41;49.45;99655.09;3158632;28;19920;-71
2023/08/18 04:30:44;;;;;;;;;;;;;;;23.44;49.32;99656.59;3158505;28;19931;-71
2023/08/18 04:32:16;;;;;;;;;;;;;;;23.44;49.44;99660.09;3158267;28;19939;-72
2023/08/18 04:33:46;;;;;;;;;;;;;;;23.42;49.52;99655.91;3158548;28;20313;-72
2023/08/18 04:35:18;;;;;;;;;;;;;;;23.41;49.53;99652.41;3158629;28;19920;-72
2023/08/18 04:36:48;;;;;;;;;;;;;;;23.42;49.45;99651.41;3158211;28;19927;-72
2023/08/18 04:38:20;;;;;;;;;;;;;;;23.43;49.32;99658.44;3143771;28;19925;-71
2023/08/18 04:39:51;;;;;;;;;;;;;;;23.44;49.52;99651.28;3158818;28;19920;-71
2023/08/18 04:41:24;;;;;;;;;;;;;;;23.45;49.63;99660.91;3154199;28;19964;-71
2023/08/18 04:42:56;;;;;;;;;;;;;;;23.46;49.34;99654.63;3158235;28;20352;-71
2023/08/18 04:44:26;;;;;;;;;;;;;;;23.46;49.57;99647.47;3158435;28;19927;-70
2023/08/18 04:45:58;;;;;;;;;;;;;;;23.48;49.57;99650.78;3158496;28;19920;-69
2023/08/18 04:47:30;;;;;;;;;;;;;;;23.52;49.49;99654.84;3158635;28;19920;-76
2023/08/18 04:49:00;;;;;;;;;;;;;;;23.54;49.31;99657.31;3154727;28;19928;-80
2023/08/18 04:50:32;;;;;;;;;;;;;;;23.58;49.32;99656.88;3159319;28;19927;-81
2023/08/18 04:52:05;;;;;;;;;;;;;;;23.60;49.29;99662.00;3146565;28;19921;-81
2023/08/18 04:53:36;;;;;;;;;;;;;;;23.59;49.22;99660.34;3159608;28;19962;-76
2023/08/18 04:55:08;;;;;;;;;;;;;;;23.58;49.34;99664.00;3157670;28;20068;-75
2023/08/18 04:56:41;;;;;;;;;;;;;;;23.58;49.12;99659.53;3148951;28;19925;-70
2023/08/18 04:58:13;;;;;;;;;;;;;;;23.58;49.09;99664.84;3157433;28;20015;-73
2023/08/18 04:59:43;;;;;;;;;;;;;;;23.58;49.08;99670.16;3160200;28;19931;-73
2023/08/18 05:01:15;;;;;;;;;;;;;;;23.59;49.13;99668.31;3149087;28;19924;-70
2023/08/18 05:02:47;;;;;;;;;;;;;;;23.58;49.19;99667.50;3153777;28;20019;-73
2023/08/18 05:04:18;;;;;;;;;;;;;;;23.60;49.00;99662.00;3158204;28;19924;-74
2023/08/18 05:06:00;;;;;;;;;;;;;;;23.65;49.02;99673.00;3158167;28;20034;-72
2023/08/18 05:07:32;;;;;;;;;;;;;;;23.70;48.85;99662.78;3152944;28;19920;-76
2023/08/18 05:09:05;;;;;;;;;;;;;;;23.76;48.93;99670.13;3148210;28;19928;-75
2023/08/18 05:10:35;;;;;;;;;;;;;;;23.82;48.80;99663.34;3146941;28;19932;-73
2023/08/18 05:12:09;;;;;;;;;;;;;;;23.88;48.76;99669.88;3143794;28;19931;-72
2023/08/18 05:13:40;;;;;;;;;;;;;;;23.92;48.69;99673.88;3152446;28;19924;-69
2023/08/18 05:15:12;;;;;;;;;;;;;;;23.96;48.36;99670.75;3152943;28;19942;-70
2023/08/18 05:16:43;;;;;;;;;;;;;;;24.01;48.31;99673.75;3158310;28;19935;-70
2023/08/18 05:18:14;;;;;;;;;;;;;;;24.04;48.65;99670.75;3158241;28;19919;-71
2023/08/18 05:19:45;;;;;;;;;;;;;;;24.09;48.46;99674.78;3157706;28;19920;-74
2023/08/18 05:21:17;;;;;;;;;;;;;;;24.11;48.09;99675.44;3158043;28;20385;-74
2023/08/18 05:22:47;;;;;;;;;;;;;;;24.14;48.39;99683.97;3152466;28;19920;-75
2023/08/18 05:24:19;;;;;;;;;;;;;;;24.14;48.27;99673.31;3156377;28;19924;-75
2023/08/18 05:25:53;;;;;;;;;;;;;;;24.14;48.52;99673.31;3147340;28;19925;-79
2023/08/18 05:27:27;;;;;;;;;;;;;;;24.16;48.60;99671.31;3153405;28;20270;-73
2023/08/18 05:28:58;;;;;;;;;;;;;;;24.22;48.13;99668.00;3158523;28;19977;-69
2023/08/18 05:30:29;;;;;;;;;;;;;;;24.33;48.02;99666.06;3158484;28;19924;-69
2023/08/18 05:32:01;;;;;;;;;;;;;;;24.42;48.06;99673.94;3158357;28;20057;-73
2023/08/18 05:33:32;;;;;;;;;;;;;;;24.50;47.81;99673.97;3158106;28;19920;-71
2023/08/18 05:35:04;;;;;;;;;;;;;;;24.59;47.89;99666.84;3158104;28;19919;-72
2023/08/18 05:36:36;;;;;;;;;;;;;;;24.68;47.67;99673.84;3158211;28;19971;-77
2023/08/18 05:38:10;;;;;;;;;;;;;;;24.77;47.58;99674.69;3156387;28;19977;-73
2023/08/18 05:39:43;;;;;;;;;;;;;;;24.96;47.42;99673.56;3157835;28;20006;-73
2023/08/18 05:41:14;;;;;;;;;;;;;;;25.45;47.02;99672.75;3147307;28;20356;-78
2023/08/18 05:42:47;;;;;;;;;;;;;;;26.24;45.33;99674.59;3157989;28;19938;-79
2023/08/18 05:44:18;;;;;;;;;;;;;;;27.04;44.07;99672.66;3158421;28;19920;-77
2023/08/18 05:45:49;;;;;;;;;;;;;;;27.77;42.41;99671.97;3143448;28;19920;-74
2023/08/18 05:47:20;;;;;;;;;;;;;;;28.47;41.16;99670.69;3157367;28;20431;-73
2023/08/18 05:48:51;;;;;;;;;;;;;;;28.98;40.05;99669.78;3157744;28;19920;-74
2023/08/18 05:50:23;;;;;;;;;;;;;;;29.36;39.41;99666.84;3157888;28;19920;-76
2023/08/18 05:51:53;;;;;;;;;;;;;;;29.78;38.45;99663.25;3155899;28;20430;-73
2023/08/18 05:53:25;;;;;;;;;;;;;;;30.08;38.04;99665.66;3137249;28;19931;-74
2023/08/18 05:54:58;;;;;;;;;;;;;;;30.20;37.85;99661.41;3134628;28;20401;-71
2023/08/18 05:56:30;;;;;;;;;;;;;;;30.24;37.51;99664.56;3146201;28;19943;-74
2023/08/18 05:58:03;;;;;;;;;;;;;;;29.88;37.85;99670.97;3146941;28;19921;-69
2023/08/18 05:59:35;;;;;;;;;;;;;;;29.37;38.81;99671.19;3157713;28;20002;-78
2023/08/18 06:01:06;;;;;;;;;;;;;;;28.90;39.71;99672.59;3150168;28;19927;-73
2023/08/18 06:02:37;;;;;;;;;;;;;;;28.50;40.51;99667.63;3157813;28;19920;-71
2023/08/18 06:04:09;;;;;;;;;;;;;;;28.21;41.29;99668.50;3157344;28;20379;-73
2023/08/18 06:05:40;;;;;;;;;;;;;;;28.00;41.82;99673.78;3157323;28;20340;-73
2023/08/18 06:07:12;;;;;;;;;;;;;;;27.78;42.20;99679.03;3153524;28;19920;-77
2023/08/18 06:08:42;;;;;;;;;;;;;;;27.60;42.83;99675.88;3154624;28;19924;-71
2023/08/18 06:10:14;;;;;;;;;;;;;;;27.45;42.99;99679.34;3153463;28;19931;-74
2023/08/18 06:11:45;;;;;;;;;;;;;;;27.38;43.26;99678.38;3157651;28;19924;-72
2023/08/18 06:13:17;;;;;;;;;;;;;;;27.34;43.59;99681.63;3155438;28;19920;-67
2023/08/18 06:14:48;;;;;;;;;;;;;;;27.26;43.56;99682.50;3151126;28;19943;-73
2023/08/18 06:16:20;;;;;;;;;;;;;;;27.23;43.61;99675.66;3157373;28;19923;-76
2023/08/18 06:17:50;;;;;;;;;;;;;;;27.23;43.91;99680.19;3157016;28;20395;-71
2023/08/18 06:19:22;;;;;;;;;;;;;;;27.25;44.04;99680.03;3158048;28;19920;-73
2023/08/18 06:20:52;;;;;;;;;;;;;;;27.33;44.04;99674.59;3158190;28;19920;-76
2023/08/18 06:22:24;;;;;;;;;;;;;;;27.46;43.90;99677.50;3153045;28;19931;-73
2023/08/18 06:23:56;;;;;;;;;;;;;;;27.58;43.98;99673.34;3140328;28;19998;-73
2023/08/18 06:25:27;;;;;;;;;;;;;;;27.72;43.81;99679.75;3158995;28;19997;-76
2023/08/18 06:26:59;;;;;;;;;;;;;;;27.85;43.62;99676.44;3159404;28;19947;-72
2023/08/18 06:28:31;;;;;;;;;;;;;;;27.99;43.58;99674.81;3159786;28;19946;-69
2023/08/18 06:30:03;;;;;;;;;;;;;;;28.06;43.00;99676.53;3158959;28;19920;-73
2023/08/18 06:31:34;;;;;;;;;;;;;;;28.03;43.06;99676.09;3159535;28;20570;-72
2023/08/18 06:33:05;;;;;;;;;;;;;;;28.02;43.36;99675.25;3159809;28;20324;-71
2023/08/18 06:34:36;;;;;;;;;;;;;;;28.05;42.99;99682.09;3159459;28;19920;-74
2023/08/18 06:36:08;;;;;;;;;;;;;;;28.07;43.11;99677.38;3159300;28;19923;-73
2023/08/18 06:37:39;;;;;;;;;;;;;;;28.11;43.21;99678.66;3152237;28;20317;-74
2023/08/18 06:39:10;;;;;;;;;;;;;;;28.13;43.15;99677.47;3149654;28;19923;-70
2023/08/18 06:40:43;;;;;;;;;;;;;;;28.12;42.75;99677.66;3148955;28;19973;-70
2023/08/18 06:42:15;;;;;;;;;;;;;;;28.15;42.94;99669.25;3155503;28;20039;-75
2023/08/18 06:43:47;;;;;;;;;;;;;;;28.21;42.58;99667.66;3151593;28;19925;-76
2023/08/18 06:45:18;;;;;;;;;;;;;;;28.26;42.82;99670.63;3146122;28;19975;-74
2023/08/18 06:46:50;;;;;;;;;;;;;;;28.23;42.63;99671.81;3153917;28;20018;-74
2023/08/18 06:48:20;;;;;;;;;;;;;;;28.27;42.45;99674.94;3158000;28;19974;-73
2023/08/18 06:49:52;;;;;;;;;;;;;;;28.30;42.70;99670.03;3155034;28;20414;-72
2023/08/18 06:51:22;;;;;;;;;;;;;;;28.39;42.22;99672.63;3159051;28;19951;-70
2023/08/18 06:52:54;;;;;;;;;;;;;;;28.40;42.42;99672.44;3156116;28;19924;-71
2023/08/18 06:54:24;;;;;;;;;;;;;;;28.43;42.11;99672.09;3145599;28;19924;-71
2023/08/18 06:55:56;;;;;;;;;;;;;;;28.45;42.39;99671.91;3149254;28;19920;-71
2023/08/18 06:57:27;;;;;;;;;;;;;;;28.49;42.01;99674.03;3149792;28;19920;-71
2023/08/18 06:59:00;;;;;;;;;;;;;;;28.55;41.80;99667.91;3157733;28;20352;-71
2023/08/18 07:00:30;;;;;;;;;;;;;;;28.64;41.64;99674.00;3157633;28;19924;-71
2023/08/18 07:02:03;;;;;;;;;;;;;;;28.72;41.58;99671.19;3158792;28;20411;-71
2023/08/18 07:03:34;;;;;;;;;;;;;;;28.82;41.78;99670.06;3157836;28;20359;-71
2023/08/18 07:05:05;;;;;;;;;;;;;;;28.95;41.67;99670.16;3158866;28;20332;-71
2023/08/18 07:06:37;;;;;;;;;;;;;;;29.02;41.15;99674.63;3159136;28;19920;-71
2023/08/18 07:08:08;;;;;;;;;;;;;;;29.06;41.39;99674.22;3147473;28;20298;-71
2023/08/18 07:09:40;;;;;;;;;;;;;;;29.11;41.29;99669.13;3157950;28;20496;-71
2023/08/18 07:11:10;;;;;;;;;;;;;;;29.20;40.84;99667.97;3149440;28;20400;-71
2023/08/18 07:12:42;;;;;;;;;;;;;;;29.34;40.69;99675.06;3159182;28;19920;-71
2023/08/18 07:14:14;;;;;;;;;;;;;;;29.41;40.74;99667.09;3155609;28;19920;-71
2023/08/18 07:15:45;;;;;;;;;;;;;;;29.50;40.64;99662.41;3159412;28;19931;-71
2023/08/18 07:17:17;;;;;;;;;;;;;;;29.52;40.34;99666.56;3158854;28;19920;-69
2023/08/18 07:18:48;;;;;;;;;;;;;;;29.66;40.57;99667.50;3159014;28;20391;-71
2023/08/18 07:20:20;;;;;;;;;;;;;;;29.75;40.52;99663.63;3159317;28;19920;-71
2023/08/18 07:21:51;;;;;;;;;;;;;;;29.85;40.11;99656.06;3157904;28;20003;-71
2023/08/18 07:23:22;;;;;;;;;;;;;;;29.95;40.24;99661.06;3150261;28;19927;-70
2023/08/18 07:24:54;;;;;;;;;;;;;;;29.94;39.56;99662.09;3158788;28;19924;-71
2023/08/18 07:26:25;;;;;;;;;;;;;;;29.92;39.68;99656.09;3158927;28;19927;-71
2023/08/18 07:27:57;;;;;;;;;;;;;;;29.90;39.83;99656.31;3158757;28;20022;-71
2023/08/18 07:29:29;;;;;;;;;;;;;;;29.97;40.03;99659.03;3159241;28;19978;-71
2023/08/18 07:31:04;;;;;;;;;;;;;;;30.00;39.60;99653.25;3158715;28;20754;-71
2023/08/18 07:32:36;;;;;;;;;;;;;;;30.10;39.39;99655.56;3158600;28;20386;-72
2023/08/18 07:34:07;;;;;;;;;;;;;;;30.22;39.65;99658.53;3150045;28;19924;-71
2023/08/18 07:35:38;;;;;;;;;;;;;;;30.34;39.45;99662.31;3158754;28;20249;-71
2023/08/18 07:37:10;;;;;;;;;;;;;;;30.44;39.03;99657.41;3146525;28;19929;-70
2023/08/18 07:38:40;;;;;;;;;;;;;;;30.50;39.13;99661.97;3156872;28;20499;-70
2023/08/18 07:40:12;;;;;;;;;;;;;;;30.64;38.98;99652.06;3158547;28;19920;-70
2023/08/18 07:41:44;;;;;;;;;;;;;;;30.79;38.73;99658.13;3158072;28;19964;-70
2023/08/18 07:43:14;;;;;;;;;;;;;;;30.96;38.56;99649.66;3158196;28;19982;-69
2023/08/18 07:44:47;;;;;;;;;;;;;;;31.11;38.43;99652.16;3156900;28;20338;-69
2023/08/18 07:46:18;;;;;;;;;;;;;;;31.21;38.20;99656.09;3149170;28;19920;-69
2023/08/18 07:47:49;;;;;;;;;;;;;;;31.33;38.16;99656.31;3151970;28;19920;-70
2023/08/18 07:49:21;;;;;;;;;;;;;;;31.44;37.96;99647.63;3158344;28;19931;-71
2023/08/18 07:50:52;;;;;;;;;;;;;;;31.53;37.72;99652.78;3158635;28;19920;-71
2023/08/18 07:52:23;;;;;;;;;;;;;;;31.61;37.61;99647.19;3155463;28;19962;-70
2023/08/18 07:53:54;;;;;;;;;;;;;;;31.74;37.51;99655.25;3158514;28;20385;-70
2023/08/18 07:55:25;;;;;;;;;;;;;;;31.91;37.25;99656.44;3158757;28;19923;-70
2023/08/18 07:56:56;;;;;;;;;;;;;;;32.06;37.20;99648.13;3157863;28;19926;-70